Time;durP1;ratioP1;P1;durP2;ratioP2;P2;SDS_P1;SDS_P2;PMS_P1;PMS_P2;Temp;Humidity;BMP_temperature;BMP_pressure;BME280_temperature;BME280_humidity;BME280_pressure;Samples;Min_cycle;Max_cycle;Signal;HPM_P1;HPM_P2
2021/09/05 00:01:04;;;;;;;9.65;7.15;;;;;;;;;;5044967;28;20397;-82
2021/09/05 00:03:31;;;;;;;11.18;7.88;;;;;;;;;;5063732;28;20035;-82
2021/09/05 00:05:57;;;;;;;8.93;7.18;;;;;;;;;;5062631;28;20033;-81
2021/09/05 00:08:23;;;;;;;8.65;6.90;;;;;;;;;;5053059;28;20521;-82
2021/09/05 00:10:49;;;;;;;11.18;8.65;;;;;;;;;;5060908;28;20025;-82
2021/09/05 00:13:15;;;;;;;12.52;9.60;;;;;;;;;;5061070;28;20159;-82
2021/09/05 00:15:41;;;;;;;10.73;8.52;;;;;;;;;;5042573;28;20029;-82
2021/09/05 00:18:07;;;;;;;10.65;8.05;;;;;;;;;;5059924;28;20036;-82
2021/09/05 00:20:33;;;;;;;9.73;7.68;;;;;;;;;;5059900;28;20029;-82
2021/09/05 00:23:00;;;;;;;8.20;6.78;;;;;;;;;;5059908;28;20017;-82
2021/09/05 00:25:26;;;;;;;10.45;7.13;;;;;;;;;;5042610;28;20078;-82
2021/09/05 00:27:52;;;;;;;8.93;6.80;;;;;;;;;;5066836;28;20032;-80
2021/09/05 00:30:18;;;;;;;9.57;6.90;;;;;;;;;;5069270;28;20040;-82
2021/09/05 00:32:44;;;;;;;9.93;7.50;;;;;;;;;;5062570;28;20434;-82
2021/09/05 00:35:10;;;;;;;8.68;6.95;;;;;;;;;;5062983;28;20446;-82
2021/09/05 00:37:36;;;;;;;9.82;7.25;;;;;;;;;;5061928;28;20456;-81
2021/09/05 00:40:02;;;;;;;8.15;6.32;;;;;;;;;;5022544;28;20461;-81
2021/09/05 00:42:28;;;;;;;9.85;6.57;;;;;;;;;;5019944;28;20013;-82
2021/09/05 00:44:55;;;;;;;7.60;6.53;;;;;;;;;;5037229;28;20021;-81
2021/09/05 00:47:21;;;;;;;8.40;6.50;;;;;;;;;;5020246;28;20036;-80
2021/09/05 00:49:47;;;;;;;7.05;6.07;;;;;;;;;;5036093;28;20485;-82
2021/09/05 00:52:14;;;;;;;7.60;5.75;;;;;;;;;;5020056;28;20029;-82
2021/09/05 00:54:44;;;;;;;8.25;5.45;;;;;;;;;;5037573;28;20528;-82
2021/09/05 00:57:13;;;;;;;6.78;5.32;;;;;;;;;;5038183;28;20026;-81
2021/09/05 00:59:41;;;;;;;7.22;5.63;;;;;;;;;;5038799;28;20021;-82
2021/09/05 01:02:07;;;;;;;6.63;5.53;;;;;;;;;;5041346;28;20060;-82
2021/09/05 01:04:33;;;;;;;6.80;5.57;;;;;;;;;;5056986;28;20033;-79
2021/09/05 01:06:59;;;;;;;6.97;5.70;;;;;;;;;;5060259;28;20013;-80
2021/09/05 01:09:26;;;;;;;6.25;5.13;;;;;;;;;;5066729;28;20026;-80
2021/09/05 01:11:53;;;;;;;7.20;5.40;;;;;;;;;;5059141;28;20057;-79
2021/09/05 01:14:19;;;;;;;8.15;5.38;;;;;;;;;;5059637;28;20017;-82
2021/09/05 01:16:45;;;;;;;6.10;4.90;;;;;;;;;;5059815;28;20028;-79
2021/09/05 01:19:11;;;;;;;5.93;5.00;;;;;;;;;;5059483;28;20018;-80
2021/09/05 01:21:38;;;;;;;6.63;5.22;;;;;;;;;;5042404;28;20117;-81
2021/09/05 01:24:05;;;;;;;7.00;5.75;;;;;;;;;;5059891;28;20061;-80
2021/09/05 01:26:32;;;;;;;5.57;4.93;;;;;;;;;;5047512;28;20052;-81
2021/09/05 01:28:58;;;;;;;6.68;5.30;;;;;;;;;;5034733;28;20044;-80
2021/09/05 01:31:26;;;;;;;7.72;5.57;;;;;;;;;;5060032;28;20047;-80
2021/09/05 01:33:52;;;;;;;7.53;5.15;;;;;;;;;;5058870;28;20090;-80
2021/09/05 01:36:19;;;;;;;6.72;5.38;;;;;;;;;;5046149;28;20025;-81
2021/09/05 01:38:45;;;;;;;8.07;5.82;;;;;;;;;;5054541;28;20052;-83
2021/09/05 01:41:11;;;;;;;6.45;5.00;;;;;;;;;;5068394;28;20084;-83
2021/09/05 01:43:37;;;;;;;6.60;5.00;;;;;;;;;;5046904;28;20105;-83
2021/09/05 01:46:03;;;;;;;5.25;4.20;;;;;;;;;;5064251;28;20013;-83
2021/09/05 01:48:29;;;;;;;8.15;5.32;;;;;;;;;;5069430;28;20077;-82
2021/09/05 01:50:56;;;;;;;9.00;5.05;;;;;;;;;;5060210;28;20025;-82
2021/09/05 01:53:22;;;;;;;6.63;5.20;;;;;;;;;;5077618;28;20029;-80
2021/09/05 01:55:48;;;;;;;6.22;5.00;;;;;;;;;;5061705;28;20064;-83
2021/09/05 01:58:14;;;;;;;5.90;5.10;;;;;;;;;;5042685;28;20028;-82
2021/09/05 02:00:40;;;;;;;5.95;4.82;;;;;;;;;;5066319;28;20385;-83
2021/09/05 02:03:06;;;;;;;6.25;5.22;;;;;;;;;;5059209;28;20060;-82
2021/09/05 02:05:32;;;;;;;6.60;5.70;;;;;;;;;;5058441;28;20131;-82
2021/09/05 02:07:58;;;;;;;6.75;5.30;;;;;;;;;;5049393;28;20136;-83
2021/09/05 02:10:25;;;;;;;7.55;5.18;;;;;;;;;;5058527;28;20024;-81
2021/09/05 02:12:51;;;;;;;6.63;5.40;;;;;;;;;;5059396;28;20100;-81
2021/09/05 02:15:17;;;;;;;6.75;5.13;;;;;;;;;;5068368;28;20109;-81
2021/09/05 02:17:43;;;;;;;7.30;5.63;;;;;;;;;;5063614;28;20021;-81
2021/09/05 02:20:10;;;;;;;6.75;5.20;;;;;;;;;;5060417;28;20021;-80
2021/09/05 02:22:36;;;;;;;6.30;5.03;;;;;;;;;;5041575;28;20044;-82
2021/09/05 02:25:02;;;;;;;6.13;5.10;;;;;;;;;;5041895;28;20115;-82
2021/09/05 02:27:28;;;;;;;6.60;5.28;;;;;;;;;;5060264;28;20063;-82
2021/09/05 02:29:54;;;;;;;5.32;4.47;;;;;;;;;;5060060;28;20028;-82
2021/09/05 02:32:20;;;;;;;7.53;5.60;;;;;;;;;;5060324;28;20082;-83
2021/09/05 02:34:46;;;;;;;6.10;5.10;;;;;;;;;;5042362;28;20017;-83
2021/09/05 02:37:12;;;;;;;5.90;5.10;;;;;;;;;;5039637;28;20509;-82
2021/09/05 02:39:38;;;;;;;6.68;5.30;;;;;;;;;;5079667;22;20429;-83
2021/09/05 02:42:04;;;;;;;5.20;4.35;;;;;;;;;;5033956;28;20029;-79
2021/09/05 02:44:30;;;;;;;5.60;4.47;;;;;;;;;;5036623;28;20029;-80
2021/09/05 02:46:56;;;;;;;6.28;4.57;;;;;;;;;;5039431;28;20056;-78
2021/09/05 02:49:22;;;;;;;5.82;4.90;;;;;;;;;;5057300;28;20037;-79
2021/09/05 02:51:48;;;;;;;5.95;4.50;;;;;;;;;;5056707;28;20041;-81
2021/09/05 02:54:14;;;;;;;4.85;4.35;;;;;;;;;;5055829;28;20037;-80
2021/09/05 02:56:41;;;;;;;5.53;4.72;;;;;;;;;;5055598;28;20032;-80
2021/09/05 02:59:07;;;;;;;5.10;4.18;;;;;;;;;;5038338;28;20317;-81
2021/09/05 03:01:33;;;;;;;6.03;4.70;;;;;;;;;;5038669;28;20045;-81
2021/09/05 03:03:59;;;;;;;5.18;4.68;;;;;;;;;;5038388;28;20025;-83
2021/09/05 03:06:25;;;;;;;4.18;3.65;;;;;;;;;;5038047;28;20029;-80
2021/09/05 03:08:51;;;;;;;5.50;4.57;;;;;;;;;;5055511;28;20030;-81
2021/09/05 03:11:17;;;;;;;5.85;4.75;;;;;;;;;;5055349;28;20025;-81
2021/09/05 03:13:47;;;;;;;5.38;4.53;;;;;;;;;;5038312;28;20032;-82
2021/09/05 03:16:13;;;;;;;5.97;4.40;;;;;;;;;;5038072;28;20026;-82
2021/09/05 03:18:39;;;;;;;5.90;4.25;;;;;;;;;;5038501;28;20053;-82
2021/09/05 03:21:06;;;;;;;5.65;4.32;;;;;;;;;;5037721;28;20036;-83
2021/09/05 03:23:32;;;;;;;6.43;4.85;;;;;;;;;;5038347;28;20030;-83
2021/09/05 03:25:58;;;;;;;7.55;5.60;;;;;;;;;;5037988;28;20033;-84
2021/09/05 03:28:24;;;;;;;6.68;5.65;;;;;;;;;;5038177;28;20021;-81
2021/09/05 03:30:50;;;;;;;7.68;5.82;;;;;;;;;;5038549;28;20014;-81
2021/09/05 03:33:16;;;;;;;5.82;5.13;;;;;;;;;;5055947;28;20033;-81
2021/09/05 03:35:42;;;;;;;6.22;4.88;;;;;;;;;;5038482;28;20018;-83
2021/09/05 03:38:08;;;;;;;6.18;5.05;;;;;;;;;;5022269;28;20088;-81
2021/09/05 03:40:34;;;;;;;7.25;5.13;;;;;;;;;;5055420;28;20048;-81
2021/09/05 03:43:00;;;;;;;5.97;4.90;;;;;;;;;;5038535;28;20022;-81
2021/09/05 03:45:26;;;;;;;5.72;4.45;;;;;;;;;;5038745;28;20025;-83
2021/09/05 03:47:52;;;;;;;5.15;4.57;;;;;;;;;;5056236;28;20016;-81
2021/09/05 03:50:18;;;;;;;5.25;4.38;;;;;;;;;;5055548;28;20033;-82
2021/09/05 03:52:45;;;;;;;10.77;4.85;;;;;;;;;;5054167;28;20037;-84
2021/09/05 03:55:11;;;;;;;5.85;4.40;;;;;;;;;;5052090;28;20014;-84
2021/09/05 03:57:37;;;;;;;5.38;4.85;;;;;;;;;;5034849;28;20026;-81
2021/09/05 04:00:04;;;;;;;5.15;4.40;;;;;;;;;;5054547;28;20025;-83
2021/09/05 04:02:30;;;;;;;5.15;4.47;;;;;;;;;;5055543;28;20021;-82
2021/09/05 04:04:56;;;;;;;6.75;4.72;;;;;;;;;;5038493;28;20053;-81
2021/09/05 04:10:26;;;;;;;6.40;4.00;;;;;;;;;;5055390;28;20035;-81
2021/09/05 04:12:53;;;;;;;5.53;4.50;;;;;;;;;;5037964;28;20018;-81
2021/09/05 04:15:19;;;;;;;4.63;4.13;;;;;;;;;;5055581;28;20030;-81
2021/09/05 04:17:45;;;;;;;4.72;4.05;;;;;;;;;;5038292;28;20028;-81
2021/09/05 04:20:11;;;;;;;4.93;4.30;;;;;;;;;;5037568;28;20029;-84
2021/09/05 04:22:37;;;;;;;5.50;4.53;;;;;;;;;;5055516;28;20022;-83
2021/09/05 04:25:04;;;;;;;5.00;4.25;;;;;;;;;;5038303;28;20018;-82
2021/09/05 04:27:30;;;;;;;5.25;4.75;;;;;;;;;;5037967;28;20017;-82
2021/09/05 04:29:56;;;;;;;5.78;4.65;;;;;;;;;;5037184;28;20033;-84
2021/09/05 04:32:22;;;;;;;6.20;5.05;;;;;;;;;;5028953;28;20010;-81
2021/09/05 04:34:48;;;;;;;5.80;5.05;;;;;;;;;;5040733;28;20038;-82
2021/09/05 04:37:15;;;;;;;6.38;5.20;;;;;;;;;;5026261;28;20025;-85
2021/09/05 04:39:41;;;;;;;7.50;5.28;;;;;;;;;;5012965;28;20049;-87
2021/09/05 04:42:07;;;;;;;6.43;5.07;;;;;;;;;;5009509;28;20050;-86
2021/09/05 04:44:33;;;;;;;7.13;5.43;;;;;;;;;;5027134;28;20038;-83
2021/09/05 04:47:01;;;;;;;7.97;6.35;;;;;;;;;;5010595;28;20048;-84
2021/09/05 04:49:27;;;;;;;6.45;5.57;;;;;;;;;;5008944;28;20163;-85
2021/09/05 04:51:54;;;;;;;6.22;5.07;;;;;;;;;;5006634;28;20026;-85
2021/09/05 04:54:20;;;;;;;7.13;5.60;;;;;;;;;;5005153;28;20120;-85
2021/09/05 04:56:46;;;;;;;6.88;5.32;;;;;;;;;;5005926;28;20030;-86
2021/09/05 04:59:12;;;;;;;6.40;4.80;;;;;;;;;;5012432;28;20027;-85
2021/09/05 05:01:38;;;;;;;7.40;5.63;;;;;;;;;;5035480;28;20046;-85
2021/09/05 05:04:04;;;;;;;6.05;4.57;;;;;;;;;;5028008;28;20052;-87
2021/09/05 05:06:31;;;;;;;5.47;4.70;;;;;;;;;;5004569;28;20026;-86
2021/09/05 05:08:57;;;;;;;6.25;5.00;;;;;;;;;;5020268;28;20035;-81
2021/09/05 05:11:23;;;;;;;6.13;4.95;;;;;;;;;;5028981;28;20365;-81
2021/09/05 05:13:51;;;;;;;8.13;5.07;;;;;;;;;;5020627;28;20037;-80
2021/09/05 05:16:17;;;;;;;5.47;4.90;;;;;;;;;;5023059;28;20080;-79
2021/09/05 05:18:43;;;;;;;6.20;5.25;;;;;;;;;;5038336;28;20096;-80
2021/09/05 05:21:09;;;;;;;6.30;5.50;;;;;;;;;;5037182;28;20032;-80
2021/09/05 05:23:36;;;;;;;9.48;5.78;;;;;;;;;;5040321;28;20425;-81
2021/09/05 05:26:02;;;;;;;6.32;5.68;;;;;;;;;;5040652;28;20026;-81
2021/09/05 05:28:28;;;;;;;6.20;5.25;;;;;;;;;;5040863;28;20022;-81
2021/09/05 05:30:54;;;;;;;6.22;4.82;;;;;;;;;;5038163;28;20065;-81
2021/09/05 05:33:20;;;;;;;5.78;4.72;;;;;;;;;;5022234;28;20026;-80
2021/09/05 05:35:49;;;;;;;6.13;5.30;;;;;;;;;;5033686;28;20515;-82
2021/09/05 05:38:16;;;;;;;5.97;4.72;;;;;;;;;;5035031;28;20021;-81
2021/09/05 05:40:41;;;;;;;6.10;5.38;;;;;;;;;;5047914;28;20041;-79
2021/09/05 05:43:08;;;;;;;6.50;5.38;;;;;;;;;;5055618;28;20036;-80
2021/09/05 05:45:34;;;;;;;5.90;4.68;;;;;;;;;;5043500;28;20095;-81
2021/09/05 05:48:00;;;;;;;6.50;4.82;;;;;;;;;;5024211;28;20034;-81
2021/09/05 05:50:26;;;;;;;6.22;5.40;;;;;;;;;;5022255;28;20113;-81
2021/09/05 05:52:52;;;;;;;6.47;5.32;;;;;;;;;;5026408;28;20022;-81
2021/09/05 05:55:19;;;;;;;6.03;4.72;;;;;;;;;;5026866;28;20048;-82
2021/09/05 05:57:45;;;;;;;6.85;5.30;;;;;;;;;;5027187;28;20026;-80
2021/09/05 06:00:12;;;;;;;5.10;4.57;;;;;;;;;;5028707;28;20026;-81
2021/09/05 06:02:38;;;;;;;6.35;5.05;;;;;;;;;;5028006;28;20034;-82
2021/09/05 06:05:04;;;;;;;7.30;5.82;;;;;;;;;;5044566;28;20052;-82
2021/09/05 06:07:30;;;;;;;6.13;5.22;;;;;;;;;;5020830;28;20030;-81
2021/09/05 06:09:56;;;;;;;7.72;6.03;;;;;;;;;;5039719;28;20041;-82
2021/09/05 06:12:23;;;;;;;6.20;5.60;;;;;;;;;;5041846;28;20037;-81
2021/09/05 06:14:49;;;;;;;6.97;5.60;;;;;;;;;;5043225;28;20033;-81
2021/09/05 06:17:15;;;;;;;6.22;5.63;;;;;;;;;;5027133;28;20033;-81
2021/09/05 06:19:41;;;;;;;6.03;5.32;;;;;;;;;;5005847;28;20529;-82
2021/09/05 06:22:07;;;;;;;5.82;4.95;;;;;;;;;;5030950;28;20060;-81
2021/09/05 06:24:33;;;;;;;6.68;5.60;;;;;;;;;;5050274;28;20051;-79
2021/09/05 06:26:59;;;;;;;5.30;4.80;;;;;;;;;;5041515;28;20025;-81
2021/09/05 06:29:25;;;;;;;6.15;5.10;;;;;;;;;;5047416;28;20065;-80
2021/09/05 06:31:51;;;;;;;5.85;5.10;;;;;;;;;;5025601;28;20030;-81
2021/09/05 06:34:17;;;;;;;6.97;5.50;;;;;;;;;;5000912;28;20026;-81
2021/09/05 06:36:43;;;;;;;7.38;5.53;;;;;;;;;;5028226;28;20044;-81
2021/09/05 06:39:09;;;;;;;8.15;5.80;;;;;;;;;;5042242;28;20468;-82
2021/09/05 06:41:35;;;;;;;6.43;5.40;;;;;;;;;;5021755;28;20048;-82
2021/09/05 06:44:01;;;;;;;6.18;5.47;;;;;;;;;;5024742;28;20029;-81
2021/09/05 06:46:27;;;;;;;7.40;5.55;;;;;;;;;;5002152;28;20057;-81
2021/09/05 06:48:53;;;;;;;6.75;5.30;;;;;;;;;;5021323;28;20034;-81
2021/09/05 06:51:19;;;;;;;5.68;5.07;;;;;;;;;;5018437;28;20057;-82
2021/09/05 06:53:45;;;;;;;7.43;6.18;;;;;;;;;;5019062;28;20026;-83
2021/09/05 06:56:11;;;;;;;6.50;5.63;;;;;;;;;;5000256;28;20395;-81
2021/09/05 06:58:38;;;;;;;5.55;4.80;;;;;;;;;;4999992;28;20026;-81
2021/09/05 07:01:04;;;;;;;5.57;4.88;;;;;;;;;;5017532;28;20026;-81
2021/09/05 07:03:30;;;;;;;5.95;5.10;;;;;;;;;;5021505;28;20095;-81
2021/09/05 07:05:56;;;;;;;6.85;4.55;;;;;;;;;;5018392;28;20030;-81
2021/09/05 07:08:23;;;;;;;6.57;5.45;;;;;;;;;;5028943;28;20059;-81
2021/09/05 07:10:49;;;;;;;7.93;5.55;;;;;;;;;;5033421;28;20044;-81
2021/09/05 07:13:15;;;;;;;6.00;5.05;;;;;;;;;;5021043;28;20173;-82
2021/09/05 07:15:41;;;;;;;6.13;5.18;;;;;;;;;;5025537;28;20085;-81
2021/09/05 07:18:07;;;;;;;7.50;5.93;;;;;;;;;;5003408;28;20495;-82
2021/09/05 07:20:33;;;;;;;6.80;5.55;;;;;;;;;;5010794;28;20025;-83
2021/09/05 07:22:59;;;;;;;6.13;4.72;;;;;;;;;;5038793;28;20072;-82
2021/09/05 07:25:26;;;;;;;5.07;4.32;;;;;;;;;;5038762;28;20037;-81
2021/09/05 07:27:53;;;;;;;6.85;5.10;;;;;;;;;;5020669;28;20029;-83
2021/09/05 07:30:19;;;;;;;6.50;5.30;;;;;;;;;;5018595;28;20222;-84
2021/09/05 07:32:45;;;;;;;6.45;4.95;;;;;;;;;;5019536;28;20438;-82
2021/09/05 07:35:11;;;;;;;5.22;4.72;;;;;;;;;;5001008;28;20022;-81
2021/09/05 07:37:38;;;;;;;5.47;4.95;;;;;;;;;;5031312;28;20033;-81
2021/09/05 07:40:05;;;;;;;6.88;5.10;;;;;;;;;;5020972;28;20029;-81
2021/09/05 07:42:31;;;;;;;6.18;4.78;;;;;;;;;;5039890;28;20033;-81
2021/09/05 07:45:00;;;;;;;7.13;5.70;;;;;;;;;;5023677;28;20048;-81
2021/09/05 07:47:26;;;;;;;6.45;5.72;;;;;;;;;;5047377;28;20026;-82
2021/09/05 07:49:52;;;;;;;5.28;4.78;;;;;;;;;;5031577;28;20029;-78
2021/09/05 07:52:18;;;;;;;5.95;4.95;;;;;;;;;;5033649;28;20026;-81
2021/09/05 07:54:44;;;;;;;6.65;5.30;;;;;;;;;;5022875;28;20026;-82
2021/09/05 07:57:10;;;;;;;6.55;5.55;;;;;;;;;;5018817;28;20026;-82
2021/09/05 07:59:36;;;;;;;6.53;5.43;;;;;;;;;;5018073;28;20451;-83
2021/09/05 08:02:02;;;;;;;5.53;4.63;;;;;;;;;;5018049;28;20042;-82
2021/09/05 08:04:28;;;;;;;7.38;5.25;;;;;;;;;;5018386;28;20385;-82
2021/09/05 08:06:54;;;;;;;7.72;5.47;;;;;;;;;;5028789;28;20514;-81
2021/09/05 08:09:20;;;;;;;6.18;4.82;;;;;;;;;;5017679;28;20500;-82
2021/09/05 08:11:46;;;;;;;6.70;5.25;;;;;;;;;;5025540;28;20032;-82
2021/09/05 08:14:13;;;;;;;5.75;5.15;;;;;;;;;;5049590;28;20025;-81
2021/09/05 08:16:39;;;;;;;6.32;5.43;;;;;;;;;;5047741;28;20096;-83
2021/09/05 08:19:05;;;;;;;8.32;5.97;;;;;;;;;;5050990;28;20362;-80
2021/09/05 08:21:31;;;;;;;6.00;5.40;;;;;;;;;;5033513;28;20030;-79
2021/09/05 08:23:58;;;;;;;8.30;5.78;;;;;;;;;;5030639;28;20025;-82
2021/09/05 08:26:25;;;;;;;6.85;5.78;;;;;;;;;;5025246;28;20030;-80
2021/09/05 08:28:51;;;;;;;6.35;5.22;;;;;;;;;;5007378;28;20101;-80
2021/09/05 08:31:18;;;;;;;6.97;5.53;;;;;;;;;;5024761;28;20519;-81
2021/09/05 08:33:44;;;;;;;5.07;4.57;;;;;;;;;;5024044;28;20025;-79
2021/09/05 08:36:10;;;;;;;6.20;5.00;;;;;;;;;;5060295;28;20024;-77
2021/09/05 08:38:36;;;;;;;5.30;4.80;;;;;;;;;;5030643;28;20066;-80
2021/09/05 08:41:02;;;;;;;4.78;4.28;;;;;;;;;;5077557;22;20105;-79
2021/09/05 08:43:29;;;;;;;5.07;4.57;;;;;;;;;;5059373;28;20037;-79
2021/09/05 08:45:55;;;;;;;6.47;5.50;;;;;;;;;;5059835;28;20155;-79
2021/09/05 08:48:21;;;;;;;5.53;4.93;;;;;;;;;;5060259;28;20069;-79
2021/09/05 08:50:48;;;;;;;4.78;4.25;;;;;;;;;;5060103;28;20033;-79
2021/09/05 08:53:16;;;;;;;6.22;5.10;;;;;;;;;;5059168;28;20081;-79
2021/09/05 08:55:42;;;;;;;5.28;4.53;;;;;;;;;;5059636;28;20025;-79
2021/09/05 08:58:08;;;;;;;5.25;4.60;;;;;;;;;;5059201;28;20032;-79
2021/09/05 09:00:35;;;;;;;6.53;4.68;;;;;;;;;;5040875;28;20430;-79
2021/09/05 09:03:01;;;;;;;4.43;4.03;;;;;;;;;;5058457;28;20025;-78
2021/09/05 09:05:32;;;;;;;5.78;4.38;;;;;;;;;;5038893;28;20022;-78
2021/09/05 09:08:03;;;;;;;6.97;5.87;;;;;;;;;;5048267;28;20108;-79
2021/09/05 09:10:29;;;;;;;5.10;4.60;;;;;;;;;;5058038;28;20620;-79
2021/09/05 09:12:55;;;;;;;5.63;4.82;;;;;;;;;;5059911;28;20029;-78
2021/09/05 09:15:26;;;;;;;4.97;4.47;;;;;;;;;;5024984;28;20032;-78
2021/09/05 09:17:58;;;;;;;4.93;4.43;;;;;;;;;;5039028;28;20064;-79
2021/09/05 09:20:38;;;;;;;5.72;4.57;;;;;;;;;;5037367;28;20429;-79
2021/09/05 09:23:13;;;;;;;7.07;4.85;;;;;;;;;;5039162;28;20033;-78
2021/09/05 09:25:50;;;;;;;6.55;5.50;;;;;;;;;;5056260;28;20039;-79
2021/09/05 09:28:27;;;;;;;6.28;5.35;;;;;;;;;;5058340;28;20017;-79
2021/09/05 09:30:53;;;;;;;9.35;5.63;;;;;;;;;;5058194;28;20095;-78
2021/09/05 09:33:20;;;;;;;6.00;5.18;;;;;;;;;;5055813;28;20142;-78
2021/09/05 09:35:47;;;;;;;5.30;4.78;;;;;;;;;;5040854;28;20021;-78
2021/09/05 09:38:14;;;;;;;5.03;4.45;;;;;;;;;;5048262;28;20390;-78
2021/09/05 09:40:40;;;;;;;7.00;4.95;;;;;;;;;;5056833;28;20031;-79
2021/09/05 09:43:18;;;;;;;4.90;4.40;;;;;;;;;;5058309;28;20032;-78
2021/09/05 09:45:45;;;;;;;5.55;5.05;;;;;;;;;;5026581;28;20029;-78
2021/09/05 09:48:11;;;;;;;5.38;4.65;;;;;;;;;;5036971;28;20022;-78
2021/09/05 09:50:43;;;;;;;7.00;5.68;;;;;;;;;;5036642;28;20478;-79
2021/09/05 09:53:09;;;;;;;5.40;4.88;;;;;;;;;;5037894;28;20025;-79
2021/09/05 09:55:39;;;;;;;5.90;4.80;;;;;;;;;;5045758;28;20079;-79
2021/09/05 09:58:06;;;;;;;5.63;5.05;;;;;;;;;;5056943;28;20104;-78
2021/09/05 10:00:32;;;;;;;7.38;4.75;;;;;;;;;;5060264;28;20025;-78
2021/09/05 10:02:59;;;;;;;7.22;5.57;;;;;;;;;;5066701;28;20029;-79
2021/09/05 10:05:26;;;;;;;5.57;5.05;;;;;;;;;;5053177;28;20083;-79
2021/09/05 10:07:52;;;;;;;5.75;5.15;;;;;;;;;;5055921;28;20051;-79
2021/09/05 10:10:19;;;;;;;5.82;4.95;;;;;;;;;;5040029;28;20060;-79
2021/09/05 10:12:45;;;;;;;5.72;5.00;;;;;;;;;;5038977;28;20124;-78
2021/09/05 10:15:12;;;;;;;5.40;4.65;;;;;;;;;;5020193;28;20025;-79
2021/09/05 10:17:39;;;;;;;4.95;4.45;;;;;;;;;;5038649;28;20026;-79
2021/09/05 10:20:05;;;;;;;4.55;4.15;;;;;;;;;;5037830;28;20029;-78
2021/09/05 10:22:32;;;;;;;5.55;5.05;;;;;;;;;;5038501;28;20060;-79
2021/09/05 10:25:00;;;;;;;7.38;4.55;;;;;;;;;;5021122;28;20033;-80
2021/09/05 10:27:29;;;;;;;5.50;4.88;;;;;;;;;;5053639;28;20108;-78
2021/09/05 10:30:08;;;;;;;5.32;4.82;;;;;;;;;;5039780;28;20025;-78
2021/09/05 10:32:54;;;;;;;5.38;4.20;;;;;;;;;;5057804;28;20071;-79
2021/09/05 10:35:27;;;;;;;5.18;4.68;;;;;;;;;;5058690;28;20047;-78
2021/09/05 10:38:09;;;;;;;5.13;4.63;;;;;;;;;;5052303;28;20364;-77
2021/09/05 10:40:45;;;;;;;5.70;5.07;;;;;;;;;;5040713;28;20486;-78
2021/09/05 10:43:12;;;;;;;6.82;4.75;;;;;;;;;;5021425;28;20430;-78
2021/09/05 10:45:38;;;;;;;5.93;4.93;;;;;;;;;;5021195;28;20466;-80
2021/09/05 10:48:23;;;;;;;5.22;4.72;;;;;;;;;;5022894;28;20033;-80
2021/09/05 10:50:50;;;;;;;5.20;4.50;;;;;;;;;;5038558;28;20036;-80
2021/09/05 10:53:17;;;;;;;5.00;4.50;;;;;;;;;;5037831;28;20026;-80
2021/09/05 10:56:03;;;;;;;6.80;4.90;;;;;;;;;;5039861;28;20116;-79
2021/09/05 10:58:45;;;;;;;5.22;4.65;;;;;;;;;;5052113;28;20477;-80
2021/09/05 11:01:30;;;;;;;4.68;4.00;;;;;;;;;;5044279;28;20041;-79
2021/09/05 11:04:14;;;;;;;5.28;4.78;;;;;;;;;;5050528;28;20099;-78
2021/09/05 11:06:41;;;;;;;6.25;5.43;;;;;;;;;;5048842;28;20104;-77
2021/09/05 11:09:21;;;;;;;6.97;4.60;;;;;;;;;;5049134;28;20033;-79
2021/09/05 11:11:56;;;;;;;5.63;4.43;;;;;;;;;;5040098;28;20030;-80
2021/09/05 11:17:09;;;;;;;4.95;4.45;;;;;;;;;;5044192;28;20029;-79
2021/09/05 11:19:35;;;;;;;5.20;4.47;;;;;;;;;;5039757;28;20026;-78
2021/09/05 11:22:05;;;;;;;4.55;4.15;;;;;;;;;;5020578;28;20029;-79
2021/09/05 11:24:31;;;;;;;6.28;4.53;;;;;;;;;;5037244;28;20030;-79
2021/09/05 11:27:01;;;;;;;4.78;4.03;;;;;;;;;;5037067;28;20033;-78
2021/09/05 11:29:28;;;;;;;4.93;4.53;;;;;;;;;;5019150;28;20040;-79
2021/09/05 11:32:01;;;;;;;5.10;4.07;;;;;;;;;;5046072;28;20135;-78
2021/09/05 11:34:27;;;;;;;4.75;4.35;;;;;;;;;;5039150;28;20382;-77
2021/09/05 11:36:53;;;;;;;5.95;4.80;;;;;;;;;;5050202;28;20076;-77
2021/09/05 11:39:19;;;;;;;4.85;4.38;;;;;;;;;;5025488;28;20081;-78
2021/09/05 11:41:45;;;;;;;5.35;4.80;;;;;;;;;;5030000;28;20052;-79
2021/09/05 11:44:11;;;;;;;4.65;4.25;;;;;;;;;;5031197;28;20063;-77
2021/09/05 11:46:37;;;;;;;5.82;4.85;;;;;;;;;;5050484;28;20040;-80
2021/09/05 11:49:04;;;;;;;5.28;4.75;;;;;;;;;;5039571;28;20433;-79
2021/09/05 11:51:31;;;;;;;6.40;4.82;;;;;;;;;;5037993;28;20127;-80
2021/09/05 11:54:02;;;;;;;4.80;4.25;;;;;;;;;;5020200;28;20090;-80
2021/09/05 11:56:29;;;;;;;5.10;4.53;;;;;;;;;;5036436;28;20415;-79
2021/09/05 11:58:55;;;;;;;5.22;4.60;;;;;;;;;;5050357;28;20021;-79
2021/09/05 12:01:21;;;;;;;4.68;4.20;;;;;;;;;;5057695;28;20079;-80
2021/09/05 12:03:47;;;;;;;5.07;4.53;;;;;;;;;;5058062;28;20060;-80
2021/09/05 12:06:14;;;;;;;4.90;4.45;;;;;;;;;;5056991;28;20021;-78
2021/09/05 12:08:40;;;;;;;4.55;4.15;;;;;;;;;;5025655;28;20434;-79
2021/09/05 12:11:07;;;;;;;4.75;4.32;;;;;;;;;;5036483;28;20126;-79
2021/09/05 12:13:46;;;;;;;4.55;4.15;;;;;;;;;;5036198;28;20400;-79
2021/09/05 12:16:19;;;;;;;5.88;4.43;;;;;;;;;;5035272;28;20024;-81
2021/09/05 12:18:58;;;;;;;3.88;3.55;;;;;;;;;;5037537;28;20059;-79
2021/09/05 12:21:34;;;;;;;4.70;4.30;;;;;;;;;;5037551;28;20052;-79
2021/09/05 12:24:00;;;;;;;4.90;4.38;;;;;;;;;;5037757;28;20469;-80
2021/09/05 12:26:26;;;;;;;5.00;4.00;;;;;;;;;;5042810;28;20399;-80
2021/09/05 12:28:59;;;;;;;4.40;4.00;;;;;;;;;;5034141;28;20059;-79
2021/09/05 12:31:38;;;;;;;4.45;4.05;;;;;;;;;;5054299;28;20062;-79
2021/09/05 12:34:04;;;;;;;4.38;3.97;;;;;;;;;;5050769;28;20051;-78
2021/09/05 12:36:30;;;;;;;4.75;4.28;;;;;;;;;;5053837;28;20381;-79
2021/09/05 12:38:57;;;;;;;4.35;3.95;;;;;;;;;;5047951;28;20428;-79
2021/09/05 12:41:27;;;;;;;5.63;3.92;;;;;;;;;;5038779;28;20038;-79
2021/09/05 12:43:54;;;;;;;4.30;3.88;;;;;;;;;;5037027;28;20025;-79
2021/09/05 12:46:43;;;;;;;4.57;4.10;;;;;;;;;;5022386;28;20029;-79
2021/09/05 12:49:13;;;;;;;5.28;3.67;;;;;;;;;;5038359;28;20098;-79
2021/09/05 12:51:58;;;;;;;4.57;3.80;;;;;;;;;;5057429;28;20040;-78
2021/09/05 12:54:25;;;;;;;4.35;3.95;;;;;;;;;;5032795;28;20060;-80
2021/09/05 12:56:52;;;;;;;3.97;3.58;;;;;;;;;;5047702;28;20048;-77
2021/09/05 12:59:18;;;;;;;4.68;3.70;;;;;;;;;;5024427;28;20402;-78
2021/09/05 13:01:48;;;;;;;4.35;3.95;;;;;;;;;;5044491;28;20040;-79
2021/09/05 13:04:14;;;;;;;4.75;4.07;;;;;;;;;;5038419;28;20013;-76
2021/09/05 13:06:40;;;;;;;4.22;3.55;;;;;;;;;;5042343;28;20048;-80
2021/09/05 13:09:06;;;;;;;5.13;4.35;;;;;;;;;;5029695;28;20048;-79
2021/09/05 13:11:32;;;;;;;4.85;4.10;;;;;;;;;;5044414;28;20510;-80
2021/09/05 13:13:59;;;;;;;4.88;4.18;;;;;;;;;;5053463;28;20010;-80
2021/09/05 13:16:26;;;;;;;4.28;3.90;;;;;;;;;;5054818;28;20051;-79
2021/09/05 13:18:52;;;;;;;7.95;4.72;;;;;;;;;;5064047;28;20045;-77
2021/09/05 13:21:19;;;;;;;6.43;4.55;;;;;;;;;;5058625;28;20550;-79
2021/09/05 13:23:50;;;;;;;5.40;4.07;;;;;;;;;;5057241;28;20056;-79
2021/09/05 13:26:20;;;;;;;4.78;4.25;;;;;;;;;;5058971;28;20021;-79
2021/09/05 13:28:46;;;;;;;7.03;4.13;;;;;;;;;;5042751;28;20417;-79
2021/09/05 13:31:13;;;;;;;4.65;4.20;;;;;;;;;;5056559;28;20053;-80
2021/09/05 13:33:39;;;;;;;5.43;4.90;;;;;;;;;;5057448;28;20041;-79
2021/09/05 13:36:06;;;;;;;4.90;4.40;;;;;;;;;;5059754;28;20025;-80
2021/09/05 13:38:32;;;;;;;4.35;3.92;;;;;;;;;;5055850;28;20079;-81
2021/09/05 13:40:58;;;;;;;5.00;4.28;;;;;;;;;;5038173;28;20035;-81
2021/09/05 13:43:24;;;;;;;6.57;4.70;;;;;;;;;;5020413;28;20025;-81
2021/09/05 13:45:50;;;;;;;4.97;4.45;;;;;;;;;;5038620;28;20496;-81
2021/09/05 13:48:16;;;;;;;4.50;4.00;;;;;;;;;;5037265;28;20037;-81
2021/09/05 13:50:43;;;;;;;4.35;3.95;;;;;;;;;;5041095;28;20117;-82
2021/09/05 13:53:09;;;;;;;5.75;3.88;;;;;;;;;;5034031;28;20635;-82
2021/09/05 13:55:35;;;;;;;6.97;4.13;;;;;;;;;;5054408;28;20364;-81
2021/09/05 13:58:01;;;;;;;5.57;4.65;;;;;;;;;;5049516;28;20033;-81
2021/09/05 14:00:27;;;;;;;6.13;4.65;;;;;;;;;;5044263;28;20033;-81
2021/09/05 14:02:53;;;;;;;4.90;4.40;;;;;;;;;;5051124;28;20553;-81
2021/09/05 14:05:19;;;;;;;6.47;4.43;;;;;;;;;;5037338;28;20037;-80
2021/09/05 14:07:46;;;;;;;4.47;4.05;;;;;;;;;;5029660;28;20068;-80
2021/09/05 14:10:12;;;;;;;5.28;4.45;;;;;;;;;;5056742;28;20027;-82
2021/09/05 14:12:38;;;;;;;4.72;4.20;;;;;;;;;;5057187;28;20047;-82
2021/09/05 14:15:05;;;;;;;6.53;4.47;;;;;;;;;;5046242;28;20051;-80
2021/09/05 14:17:31;;;;;;;6.18;3.85;;;;;;;;;;5037386;28;20025;-82
2021/09/05 14:19:57;;;;;;;6.75;4.25;;;;;;;;;;5045329;28;20045;-80
2021/09/05 14:22:23;;;;;;;4.18;3.78;;;;;;;;;;5038015;28;20029;-80
2021/09/05 14:24:50;;;;;;;4.63;4.22;;;;;;;;;;5037841;28;20513;-81
2021/09/05 14:30:04;;;;;;;5.47;4.28;;;;;;;;;;5042232;28;20029;-80
2021/09/05 14:48:45;;;;;;;4.13;3.80;;;;;;;;;;5037076;28;20112;-79
2021/09/05 14:51:22;;;;;;;5.75;4.28;;;;;;;;;;5038029;28;20017;-80
2021/09/05 14:56:33;;;;;;;4.20;3.80;;;;;;;;;;5045403;28;20059;-80
2021/09/05 15:01:57;;;;;;;4.53;4.07;;;;;;;;;;5058536;28;20111;-81
2021/09/05 15:12:34;;;;;;;4.20;3.80;;;;;;;;;;5037981;28;20132;-79
2021/09/05 15:15:00;;;;;;;4.88;3.78;;;;;;;;;;5031622;28;20056;-79
2021/09/05 15:17:28;;;;;;;6.28;4.15;;;;;;;;;;5053497;28;20013;-78
2021/09/05 15:19:55;;;;;;;5.85;4.15;;;;;;;;;;5054347;28;20056;-77
2021/09/05 15:24:50;;;;;;;4.55;4.15;;;;;;;;;;5043517;28;20490;-79